sensor_id;sensor_type;location;lat;lon;timestamp;P1;durP1;ratioP1;P2;durP2;ratioP2
17065;SDS011;23120;52.336;21.182;2022-10-19T00:02:14;17.23;;;15.23;;
17065;SDS011;23120;52.336;21.182;2022-10-19T00:04:42;16.77;;;15.07;;
17065;SDS011;23120;52.336;21.182;2022-10-19T00:07:09;15.07;;;13.53;;
17065;SDS011;23120;52.336;21.182;2022-10-19T00:09:36;16.93;;;14.00;;
17065;SDS011;23120;52.336;21.182;2022-10-19T00:12:04;16.90;;;14.20;;
17065;SDS011;23120;52.336;21.182;2022-10-19T00:14:31;16.77;;;13.60;;
17065;SDS011;23120;52.336;21.182;2022-10-19T00:16:58;16.80;;;13.20;;
17065;SDS011;23120;52.336;21.182;2022-10-19T00:19:25;16.83;;;12.73;;
17065;SDS011;23120;52.336;21.182;2022-10-19T00:21:53;17.97;;;13.80;;
17065;SDS011;23120;52.336;21.182;2022-10-19T00:24:20;14.53;;;12.87;;
17065;SDS011;23120;52.336;21.182;2022-10-19T00:26:47;17.30;;;13.80;;
17065;SDS011;23120;52.336;21.182;2022-10-19T00:29:15;16.53;;;14.00;;
17065;SDS011;23120;52.336;21.182;2022-10-19T00:31:42;17.97;;;13.73;;
17065;SDS011;23120;52.336;21.182;2022-10-19T00:34:09;15.27;;;13.33;;
17065;SDS011;23120;52.336;21.182;2022-10-19T00:36:37;17.07;;;14.43;;
17065;SDS011;23120;52.336;21.182;2022-10-19T00:39:06;16.43;;;14.73;;
17065;SDS011;23120;52.336;21.182;2022-10-19T00:41:36;15.67;;;14.07;;
17065;SDS011;23120;52.336;21.182;2022-10-19T00:44:04;16.93;;;15.10;;
17065;SDS011;23120;52.336;21.182;2022-10-19T00:46:34;15.87;;;14.30;;
17065;SDS011;23120;52.336;21.182;2022-10-19T00:49:03;19.47;;;15.33;;
17065;SDS011;23120;52.336;21.182;2022-10-19T00:51:34;17.03;;;14.30;;
17065;SDS011;23120;52.336;21.182;2022-10-19T00:54:04;19.07;;;13.50;;
17065;SDS011;23120;52.336;21.182;2022-10-19T00:56:32;15.23;;;13.27;;
17065;SDS011;23120;52.336;21.182;2022-10-19T00:59:00;15.97;;;13.07;;
17065;SDS011;23120;52.336;21.182;2022-10-19T01:01:29;17.17;;;13.13;;
17065;SDS011;23120;52.336;21.182;2022-10-19T01:03:59;18.63;;;12.70;;
17065;SDS011;23120;52.336;21.182;2022-10-19T01:06:26;13.17;;;11.17;;
17065;SDS011;23120;52.336;21.182;2022-10-19T01:08:53;19.37;;;11.87;;
17065;SDS011;23120;52.336;21.182;2022-10-19T01:11:26;13.87;;;11.33;;
17065;SDS011;23120;52.336;21.182;2022-10-19T01:14:07;17.90;;;11.43;;
17065;SDS011;23120;52.336;21.182;2022-10-19T01:16:45;12.33;;;10.33;;
17065;SDS011;23120;52.336;21.182;2022-10-19T01:19:37;13.90;;;10.00;;
17065;SDS011;23120;52.336;21.182;2022-10-19T01:22:28;14.53;;;10.93;;
17065;SDS011;23120;52.336;21.182;2022-10-19T01:25:09;12.83;;;11.53;;
17065;SDS011;23120;52.336;21.182;2022-10-19T01:27:52;13.57;;;10.53;;
17065;SDS011;23120;52.336;21.182;2022-10-19T01:30:33;14.27;;;10.33;;
17065;SDS011;23120;52.336;21.182;2022-10-19T01:33:14;16.37;;;10.17;;
17065;SDS011;23120;52.336;21.182;2022-10-19T01:35:50;12.50;;;10.17;;
17065;SDS011;23120;52.336;21.182;2022-10-19T01:38:28;12.50;;;10.23;;
17065;SDS011;23120;52.336;21.182;2022-10-19T01:41:03;18.23;;;10.27;;
17065;SDS011;23120;52.336;21.182;2022-10-19T01:43:39;15.33;;;9.70;;
17065;SDS011;23120;52.336;21.182;2022-10-19T01:46:12;15.13;;;9.53;;
17065;SDS011;23120;52.336;21.182;2022-10-19T01:48:47;10.97;;;9.20;;
17065;SDS011;23120;52.336;21.182;2022-10-19T01:51:20;18.37;;;9.83;;
17065;SDS011;23120;52.336;21.182;2022-10-19T01:53:51;14.30;;;9.70;;
17065;SDS011;23120;52.336;21.182;2022-10-19T01:56:21;13.50;;;10.00;;
17065;SDS011;23120;52.336;21.182;2022-10-19T01:58:51;19.57;;;10.07;;
17065;SDS011;23120;52.336;21.182;2022-10-19T02:01:23;14.90;;;10.00;;
17065;SDS011;23120;52.336;21.182;2022-10-19T02:03:54;16.43;;;10.40;;
17065;SDS011;23120;52.336;21.182;2022-10-19T02:06:22;16.10;;;11.00;;
17065;SDS011;23120;52.336;21.182;2022-10-19T02:08:50;16.93;;;11.13;;
17065;SDS011;23120;52.336;21.182;2022-10-19T02:11:18;14.60;;;10.90;;
17065;SDS011;23120;52.336;21.182;2022-10-19T02:13:47;18.03;;;10.77;;
17065;SDS011;23120;52.336;21.182;2022-10-19T02:16:19;16.97;;;11.00;;
17065;SDS011;23120;52.336;21.182;2022-10-19T02:18:52;15.20;;;11.07;;
17065;SDS011;23120;52.336;21.182;2022-10-19T02:21:20;16.30;;;10.37;;
17065;SDS011;23120;52.336;21.182;2022-10-19T02:23:47;12.87;;;11.03;;
17065;SDS011;23120;52.336;21.182;2022-10-19T02:26:15;12.10;;;10.87;;
17065;SDS011;23120;52.336;21.182;2022-10-19T02:28:41;15.00;;;10.83;;
17065;SDS011;23120;52.336;21.182;2022-10-19T02:31:08;12.10;;;10.50;;
17065;SDS011;23120;52.336;21.182;2022-10-19T02:33:37;14.17;;;10.67;;
17065;SDS011;23120;52.336;21.182;2022-10-19T02:36:04;14.20;;;10.17;;
17065;SDS011;23120;52.336;21.182;2022-10-19T02:38:31;14.80;;;10.40;;
17065;SDS011;23120;52.336;21.182;2022-10-19T02:40:59;13.00;;;10.47;;
17065;SDS011;23120;52.336;21.182;2022-10-19T02:43:32;13.60;;;10.40;;
17065;SDS011;23120;52.336;21.182;2022-10-19T02:46:03;12.90;;;9.83;;
17065;SDS011;23120;52.336;21.182;2022-10-19T02:48:36;10.83;;;9.70;;
17065;SDS011;23120;52.336;21.182;2022-10-19T02:51:04;13.63;;;10.27;;
17065;SDS011;23120;52.336;21.182;2022-10-19T02:53:31;10.87;;;9.70;;
17065;SDS011;23120;52.336;21.182;2022-10-19T02:55:58;11.90;;;10.13;;
17065;SDS011;23120;52.336;21.182;2022-10-19T02:58:25;14.13;;;10.20;;
17065;SDS011;23120;52.336;21.182;2022-10-19T03:00:51;15.13;;;10.43;;
17065;SDS011;23120;52.336;21.182;2022-10-19T03:03:18;11.10;;;9.50;;
17065;SDS011;23120;52.336;21.182;2022-10-19T03:05:46;15.53;;;10.57;;
17065;SDS011;23120;52.336;21.182;2022-10-19T03:08:13;11.30;;;9.73;;
17065;SDS011;23120;52.336;21.182;2022-10-19T03:10:40;16.70;;;10.50;;
17065;SDS011;23120;52.336;21.182;2022-10-19T03:13:06;14.60;;;9.87;;
17065;SDS011;23120;52.336;21.182;2022-10-19T03:15:33;17.03;;;10.33;;
17065;SDS011;23120;52.336;21.182;2022-10-19T03:18:00;11.67;;;10.33;;
17065;SDS011;23120;52.336;21.182;2022-10-19T03:20:27;13.93;;;10.27;;
17065;SDS011;23120;52.336;21.182;2022-10-19T03:22:55;11.30;;;10.10;;
17065;SDS011;23120;52.336;21.182;2022-10-19T03:25:21;13.33;;;10.47;;
17065;SDS011;23120;52.336;21.182;2022-10-19T03:27:50;17.20;;;10.70;;
17065;SDS011;23120;52.336;21.182;2022-10-19T03:30:17;15.37;;;9.70;;
17065;SDS011;23120;52.336;21.182;2022-10-19T03:32:44;14.67;;;10.47;;
17065;SDS011;23120;52.336;21.182;2022-10-19T03:35:11;15.43;;;10.43;;
17065;SDS011;23120;52.336;21.182;2022-10-19T03:37:37;14.07;;;10.47;;
17065;SDS011;23120;52.336;21.182;2022-10-19T03:40:06;13.93;;;10.50;;
17065;SDS011;23120;52.336;21.182;2022-10-19T03:42:33;12.97;;;10.27;;
17065;SDS011;23120;52.336;21.182;2022-10-19T03:45:00;14.77;;;11.20;;
17065;SDS011;23120;52.336;21.182;2022-10-19T03:47:27;14.90;;;10.43;;
17065;SDS011;23120;52.336;21.182;2022-10-19T03:49:54;17.23;;;10.37;;
17065;SDS011;23120;52.336;21.182;2022-10-19T03:52:21;16.33;;;11.63;;
17065;SDS011;23120;52.336;21.182;2022-10-19T03:54:48;16.40;;;10.83;;
17065;SDS011;23120;52.336;21.182;2022-10-19T03:57:17;14.53;;;10.70;;
17065;SDS011;23120;52.336;21.182;2022-10-19T03:59:44;16.47;;;10.37;;
17065;SDS011;23120;52.336;21.182;2022-10-19T04:02:10;16.77;;;11.30;;
17065;SDS011;23120;52.336;21.182;2022-10-19T04:04:37;15.23;;;10.77;;
17065;SDS011;23120;52.336;21.182;2022-10-19T04:07:04;17.93;;;10.97;;
17065;SDS011;23120;52.336;21.182;2022-10-19T04:09:31;11.43;;;9.60;;
17065;SDS011;23120;52.336;21.182;2022-10-19T04:11:57;14.57;;;10.43;;
17065;SDS011;23120;52.336;21.182;2022-10-19T04:14:25;15.10;;;10.53;;
17065;SDS011;23120;52.336;21.182;2022-10-19T04:16:52;13.10;;;10.23;;
17065;SDS011;23120;52.336;21.182;2022-10-19T04:19:19;14.77;;;10.53;;
17065;SDS011;23120;52.336;21.182;2022-10-19T04:21:46;14.60;;;10.33;;
17065;SDS011;23120;52.336;21.182;2022-10-19T04:24:15;15.20;;;9.93;;
17065;SDS011;23120;52.336;21.182;2022-10-19T04:26:43;16.23;;;10.63;;
17065;SDS011;23120;52.336;21.182;2022-10-19T04:29:11;16.57;;;10.63;;
17065;SDS011;23120;52.336;21.182;2022-10-19T04:31:39;14.83;;;9.70;;
17065;SDS011;23120;52.336;21.182;2022-10-19T04:34:07;15.27;;;10.43;;
17065;SDS011;23120;52.336;21.182;2022-10-19T04:36:34;10.97;;;9.80;;
17065;SDS011;23120;52.336;21.182;2022-10-19T04:39:02;15.30;;;10.77;;
17065;SDS011;23120;52.336;21.182;2022-10-19T04:41:29;16.00;;;9.93;;
17065;SDS011;23120;52.336;21.182;2022-10-19T04:43:57;16.73;;;10.13;;
17065;SDS011;23120;52.336;21.182;2022-10-19T04:46:25;12.97;;;10.20;;
17065;SDS011;23120;52.336;21.182;2022-10-19T04:48:55;15.10;;;10.77;;
17065;SDS011;23120;52.336;21.182;2022-10-19T04:51:22;12.00;;;9.67;;
17065;SDS011;23120;52.336;21.182;2022-10-19T04:53:49;11.93;;;9.77;;
17065;SDS011;23120;52.336;21.182;2022-10-19T04:56:18;12.83;;;10.30;;
17065;SDS011;23120;52.336;21.182;2022-10-19T04:58:47;14.13;;;9.77;;
17065;SDS011;23120;52.336;21.182;2022-10-19T05:01:15;16.97;;;10.40;;
17065;SDS011;23120;52.336;21.182;2022-10-19T05:03:43;13.70;;;10.37;;
17065;SDS011;23120;52.336;21.182;2022-10-19T05:06:12;12.93;;;9.47;;
17065;SDS011;23120;52.336;21.182;2022-10-19T05:08:40;12.40;;;9.87;;
17065;SDS011;23120;52.336;21.182;2022-10-19T05:11:08;12.10;;;9.73;;
17065;SDS011;23120;52.336;21.182;2022-10-19T05:13:36;13.10;;;9.80;;
17065;SDS011;23120;52.336;21.182;2022-10-19T05:16:04;12.27;;;10.00;;
17065;SDS011;23120;52.336;21.182;2022-10-19T05:18:33;14.03;;;10.03;;
17065;SDS011;23120;52.336;21.182;2022-10-19T05:21:01;12.30;;;9.10;;
17065;SDS011;23120;52.336;21.182;2022-10-19T05:23:30;15.13;;;9.30;;
17065;SDS011;23120;52.336;21.182;2022-10-19T05:25:58;12.53;;;9.07;;
17065;SDS011;23120;52.336;21.182;2022-10-19T05:28:29;12.27;;;9.17;;
17065;SDS011;23120;52.336;21.182;2022-10-19T05:31:03;13.93;;;8.53;;
17065;SDS011;23120;52.336;21.182;2022-10-19T05:33:30;16.07;;;9.23;;
17065;SDS011;23120;52.336;21.182;2022-10-19T05:35:57;12.93;;;9.27;;
17065;SDS011;23120;52.336;21.182;2022-10-19T05:38:24;12.47;;;8.77;;
17065;SDS011;23120;52.336;21.182;2022-10-19T05:40:52;12.57;;;8.70;;
17065;SDS011;23120;52.336;21.182;2022-10-19T05:43:19;10.00;;;8.33;;
17065;SDS011;23120;52.336;21.182;2022-10-19T05:45:45;12.97;;;9.07;;
17065;SDS011;23120;52.336;21.182;2022-10-19T05:48:12;14.30;;;8.73;;
17065;SDS011;23120;52.336;21.182;2022-10-19T05:50:39;13.17;;;8.87;;
17065;SDS011;23120;52.336;21.182;2022-10-19T05:53:05;11.33;;;8.20;;
17065;SDS011;23120;52.336;21.182;2022-10-19T05:55:33;12.27;;;8.03;;
17065;SDS011;23120;52.336;21.182;2022-10-19T05:58:02;13.20;;;8.40;;
17065;SDS011;23120;52.336;21.182;2022-10-19T06:00:29;12.93;;;8.60;;
17065;SDS011;23120;52.336;21.182;2022-10-19T06:02:55;13.73;;;9.23;;
17065;SDS011;23120;52.336;21.182;2022-10-19T06:05:22;10.63;;;8.80;;
17065;SDS011;23120;52.336;21.182;2022-10-19T06:07:49;14.57;;;8.13;;
17065;SDS011;23120;52.336;21.182;2022-10-19T06:10:16;13.70;;;8.40;;
17065;SDS011;23120;52.336;21.182;2022-10-19T06:12:43;9.30;;;8.33;;
17065;SDS011;23120;52.336;21.182;2022-10-19T06:15:11;15.63;;;9.83;;
17065;SDS011;23120;52.336;21.182;2022-10-19T06:17:39;17.43;;;10.97;;
17065;SDS011;23120;52.336;21.182;2022-10-19T06:20:05;18.80;;;10.70;;
17065;SDS011;23120;52.336;21.182;2022-10-19T06:22:33;18.13;;;11.43;;
17065;SDS011;23120;52.336;21.182;2022-10-19T06:24:59;15.60;;;11.00;;
17065;SDS011;23120;52.336;21.182;2022-10-19T06:27:26;16.87;;;10.10;;
17065;SDS011;23120;52.336;21.182;2022-10-19T06:29:53;15.60;;;9.90;;
17065;SDS011;23120;52.336;21.182;2022-10-19T06:32:21;18.23;;;9.93;;
17065;SDS011;23120;52.336;21.182;2022-10-19T06:34:48;12.83;;;9.63;;
17065;SDS011;23120;52.336;21.182;2022-10-19T06:37:15;12.17;;;8.50;;
17065;SDS011;23120;52.336;21.182;2022-10-19T06:39:41;15.10;;;7.97;;
17065;SDS011;23120;52.336;21.182;2022-10-19T06:42:09;11.37;;;8.20;;
17065;SDS011;23120;52.336;21.182;2022-10-19T06:44:35;10.10;;;7.43;;
17065;SDS011;23120;52.336;21.182;2022-10-19T06:47:02;13.43;;;7.77;;
17065;SDS011;23120;52.336;21.182;2022-10-19T06:49:30;13.97;;;7.90;;
17065;SDS011;23120;52.336;21.182;2022-10-19T06:52:00;11.50;;;7.17;;
17065;SDS011;23120;52.336;21.182;2022-10-19T06:54:27;12.77;;;6.73;;
17065;SDS011;23120;52.336;21.182;2022-10-19T06:56:54;9.63;;;6.70;;
17065;SDS011;23120;52.336;21.182;2022-10-19T06:59:21;12.10;;;6.90;;
17065;SDS011;23120;52.336;21.182;2022-10-19T07:01:47;8.63;;;6.33;;
17065;SDS011;23120;52.336;21.182;2022-10-19T07:04:14;11.77;;;6.80;;
17065;SDS011;23120;52.336;21.182;2022-10-19T07:06:42;12.60;;;7.07;;
17065;SDS011;23120;52.336;21.182;2022-10-19T07:09:09;9.10;;;7.40;;
17065;SDS011;23120;52.336;21.182;2022-10-19T07:11:36;8.63;;;6.67;;
17065;SDS011;23120;52.336;21.182;2022-10-19T07:14:03;15.13;;;7.07;;
17065;SDS011;23120;52.336;21.182;2022-10-19T07:16:29;9.67;;;7.20;;
17065;SDS011;23120;52.336;21.182;2022-10-19T07:18:56;11.10;;;6.37;;
17065;SDS011;23120;52.336;21.182;2022-10-19T07:21:25;10.23;;;6.83;;
17065;SDS011;23120;52.336;21.182;2022-10-19T07:23:53;11.47;;;6.63;;
17065;SDS011;23120;52.336;21.182;2022-10-19T07:26:20;7.13;;;5.87;;
17065;SDS011;23120;52.336;21.182;2022-10-19T07:28:50;8.00;;;6.40;;
17065;SDS011;23120;52.336;21.182;2022-10-19T07:31:18;6.60;;;5.90;;
17065;SDS011;23120;52.336;21.182;2022-10-19T07:33:46;11.97;;;6.37;;
17065;SDS011;23120;52.336;21.182;2022-10-19T07:36:16;7.80;;;6.43;;
17065;SDS011;23120;52.336;21.182;2022-10-19T07:38:43;10.10;;;8.47;;
17065;SDS011;23120;52.336;21.182;2022-10-19T07:41:12;11.33;;;7.00;;
17065;SDS011;23120;52.336;21.182;2022-10-19T07:43:40;8.43;;;6.60;;
17065;SDS011;23120;52.336;21.182;2022-10-19T07:46:09;9.03;;;6.53;;
17065;SDS011;23120;52.336;21.182;2022-10-19T07:48:37;8.63;;;6.13;;
17065;SDS011;23120;52.336;21.182;2022-10-19T07:51:04;7.70;;;5.63;;
17065;SDS011;23120;52.336;21.182;2022-10-19T07:53:33;8.53;;;5.93;;
17065;SDS011;23120;52.336;21.182;2022-10-19T07:56:03;5.97;;;4.10;;
17065;SDS011;23120;52.336;21.182;2022-10-19T07:58:33;5.93;;;4.50;;
17065;SDS011;23120;52.336;21.182;2022-10-19T08:01:00;10.50;;;4.47;;
17065;SDS011;23120;52.336;21.182;2022-10-19T08:03:28;4.23;;;3.83;;
17065;SDS011;23120;52.336;21.182;2022-10-19T08:05:58;6.33;;;3.53;;
17065;SDS011;23120;52.336;21.182;2022-10-19T08:08:26;5.90;;;3.90;;
17065;SDS011;23120;52.336;21.182;2022-10-19T08:10:53;6.13;;;3.60;;
17065;SDS011;23120;52.336;21.182;2022-10-19T08:13:20;6.60;;;3.63;;
17065;SDS011;23120;52.336;21.182;2022-10-19T08:15:48;7.40;;;3.10;;
17065;SDS011;23120;52.336;21.182;2022-10-19T08:18:15;8.33;;;3.10;;
17065;SDS011;23120;52.336;21.182;2022-10-19T08:20:42;6.40;;;3.50;;
17065;SDS011;23120;52.336;21.182;2022-10-19T08:23:09;8.07;;;4.13;;
17065;SDS011;23120;52.336;21.182;2022-10-19T08:25:36;8.33;;;4.33;;
17065;SDS011;23120;52.336;21.182;2022-10-19T08:28:03;6.07;;;3.87;;
17065;SDS011;23120;52.336;21.182;2022-10-19T08:30:29;6.73;;;3.73;;
17065;SDS011;23120;52.336;21.182;2022-10-19T08:32:58;7.77;;;4.37;;
17065;SDS011;23120;52.336;21.182;2022-10-19T08:35:24;8.97;;;4.00;;
17065;SDS011;23120;52.336;21.182;2022-10-19T08:37:51;9.03;;;4.17;;
17065;SDS011;23120;52.336;21.182;2022-10-19T08:40:19;6.80;;;3.60;;
17065;SDS011;23120;52.336;21.182;2022-10-19T08:42:51;4.97;;;3.37;;
17065;SDS011;23120;52.336;21.182;2022-10-19T08:45:31;7.53;;;3.93;;
17065;SDS011;23120;52.336;21.182;2022-10-19T08:51:01;6.87;;;3.07;;
17065;SDS011;23120;52.336;21.182;2022-10-19T08:53:32;7.43;;;3.07;;
17065;SDS011;23120;52.336;21.182;2022-10-19T08:56:14;5.20;;;3.23;;
17065;SDS011;23120;52.336;21.182;2022-10-19T08:58:52;5.90;;;3.70;;
17065;SDS011;23120;52.336;21.182;2022-10-19T09:01:30;6.70;;;3.20;;
17065;SDS011;23120;52.336;21.182;2022-10-19T09:04:04;5.80;;;3.77;;
17065;SDS011;23120;52.336;21.182;2022-10-19T09:06:36;5.93;;;3.43;;
17065;SDS011;23120;52.336;21.182;2022-10-19T09:09:12;4.73;;;2.90;;
17065;SDS011;23120;52.336;21.182;2022-10-19T09:11:41;4.27;;;2.97;;
17065;SDS011;23120;52.336;21.182;2022-10-19T09:14:12;4.30;;;2.63;;
17065;SDS011;23120;52.336;21.182;2022-10-19T09:16:43;4.83;;;2.93;;
17065;SDS011;23120;52.336;21.182;2022-10-19T09:19:14;5.00;;;2.60;;
17065;SDS011;23120;52.336;21.182;2022-10-19T09:21:47;2.40;;;2.20;;
17065;SDS011;23120;52.336;21.182;2022-10-19T09:24:22;4.33;;;2.60;;
17065;SDS011;23120;52.336;21.182;2022-10-19T09:26:57;2.50;;;2.20;;
17065;SDS011;23120;52.336;21.182;2022-10-19T09:29:26;5.93;;;2.83;;
17065;SDS011;23120;52.336;21.182;2022-10-19T09:31:57;2.80;;;2.60;;
17065;SDS011;23120;52.336;21.182;2022-10-19T09:34:28;3.00;;;2.37;;
17065;SDS011;23120;52.336;21.182;2022-10-19T09:36:58;3.47;;;2.23;;
17065;SDS011;23120;52.336;21.182;2022-10-19T09:39:25;2.33;;;1.90;;
17065;SDS011;23120;52.336;21.182;2022-10-19T09:41:54;2.93;;;1.40;;
17065;SDS011;23120;52.336;21.182;2022-10-19T09:44:23;2.43;;;1.30;;
17065;SDS011;23120;52.336;21.182;2022-10-19T09:46:51;3.27;;;1.93;;
17065;SDS011;23120;52.336;21.182;2022-10-19T09:49:38;3.97;;;2.30;;
17065;SDS011;23120;52.336;21.182;2022-10-19T09:52:19;2.03;;;1.63;;
17065;SDS011;23120;52.336;21.182;2022-10-19T09:54:49;2.80;;;1.53;;
17065;SDS011;23120;52.336;21.182;2022-10-19T09:57:23;3.83;;;1.60;;
17065;SDS011;23120;52.336;21.182;2022-10-19T09:59:50;2.30;;;1.63;;
17065;SDS011;23120;52.336;21.182;2022-10-19T10:02:18;2.13;;;1.93;;
17065;SDS011;23120;52.336;21.182;2022-10-19T10:04:53;2.63;;;1.73;;
17065;SDS011;23120;52.336;21.182;2022-10-19T10:07:22;1.30;;;1.20;;
17065;SDS011;23120;52.336;21.182;2022-10-19T10:09:52;1.87;;;1.17;;
17065;SDS011;23120;52.336;21.182;2022-10-19T10:12:19;2.67;;;1.73;;
17065;SDS011;23120;52.336;21.182;2022-10-19T10:14:48;3.03;;;2.17;;
17065;SDS011;23120;52.336;21.182;2022-10-19T10:17:16;3.93;;;2.30;;
17065;SDS011;23120;52.336;21.182;2022-10-19T10:19:51;3.13;;;2.00;;
17065;SDS011;23120;52.336;21.182;2022-10-19T10:22:30;5.77;;;2.10;;
17065;SDS011;23120;52.336;21.182;2022-10-19T10:24:58;4.53;;;2.00;;
17065;SDS011;23120;52.336;21.182;2022-10-19T10:27:28;6.27;;;1.70;;
17065;SDS011;23120;52.336;21.182;2022-10-19T10:29:57;3.37;;;1.80;;
17065;SDS011;23120;52.336;21.182;2022-10-19T10:32:24;4.07;;;1.73;;
17065;SDS011;23120;52.336;21.182;2022-10-19T10:34:58;4.83;;;2.00;;
17065;SDS011;23120;52.336;21.182;2022-10-19T10:37:28;2.90;;;1.63;;
17065;SDS011;23120;52.336;21.182;2022-10-19T10:40:00;3.77;;;1.80;;
17065;SDS011;23120;52.336;21.182;2022-10-19T10:42:29;2.60;;;1.80;;
17065;SDS011;23120;52.336;21.182;2022-10-19T10:45:00;4.50;;;1.50;;
17065;SDS011;23120;52.336;21.182;2022-10-19T10:47:28;3.73;;;1.97;;
17065;SDS011;23120;52.336;21.182;2022-10-19T10:49:59;2.20;;;1.70;;
17065;SDS011;23120;52.336;21.182;2022-10-19T10:52:30;3.20;;;1.80;;
17065;SDS011;23120;52.336;21.182;2022-10-19T10:54:58;2.70;;;1.70;;
17065;SDS011;23120;52.336;21.182;2022-10-19T10:57:28;3.97;;;1.60;;
17065;SDS011;23120;52.336;21.182;2022-10-19T10:59:59;2.67;;;1.57;;
17065;SDS011;23120;52.336;21.182;2022-10-19T11:02:35;3.47;;;1.50;;
17065;SDS011;23120;52.336;21.182;2022-10-19T11:05:11;3.17;;;1.53;;
17065;SDS011;23120;52.336;21.182;2022-10-19T11:07:43;4.33;;;1.70;;
17065;SDS011;23120;52.336;21.182;2022-10-19T11:10:15;4.03;;;1.40;;
17065;SDS011;23120;52.336;21.182;2022-10-19T11:12:53;2.67;;;1.73;;
17065;SDS011;23120;52.336;21.182;2022-10-19T11:15:29;2.63;;;1.37;;
17065;SDS011;23120;52.336;21.182;2022-10-19T11:18:04;4.20;;;1.70;;
17065;SDS011;23120;52.336;21.182;2022-10-19T11:20:40;1.60;;;1.20;;
17065;SDS011;23120;52.336;21.182;2022-10-19T11:23:15;1.70;;;1.30;;
17065;SDS011;23120;52.336;21.182;2022-10-19T11:25:49;2.43;;;1.40;;
17065;SDS011;23120;52.336;21.182;2022-10-19T11:28:34;2.33;;;1.30;;
17065;SDS011;23120;52.336;21.182;2022-10-19T11:31:14;2.20;;;1.63;;
17065;SDS011;23120;52.336;21.182;2022-10-19T11:33:50;2.03;;;1.30;;
17065;SDS011;23120;52.336;21.182;2022-10-19T11:36:33;1.57;;;1.20;;
17065;SDS011;23120;52.336;21.182;2022-10-19T11:39:15;4.30;;;1.27;;
17065;SDS011;23120;52.336;21.182;2022-10-19T11:41:58;1.60;;;1.17;;
17065;SDS011;23120;52.336;21.182;2022-10-19T11:44:33;7.30;;;1.67;;
17065;SDS011;23120;52.336;21.182;2022-10-19T11:47:17;1.30;;;1.20;;
17065;SDS011;23120;52.336;21.182;2022-10-19T11:49:56;1.37;;;0.93;;
17065;SDS011;23120;52.336;21.182;2022-10-19T11:52:36;1.93;;;1.40;;
17065;SDS011;23120;52.336;21.182;2022-10-19T11:55:14;1.80;;;1.17;;
17065;SDS011;23120;52.336;21.182;2022-10-19T11:57:58;1.53;;;1.10;;
17065;SDS011;23120;52.336;21.182;2022-10-19T12:00:33;6.30;;;1.97;;
17065;SDS011;23120;52.336;21.182;2022-10-19T12:03:16;2.30;;;1.20;;
17065;SDS011;23120;52.336;21.182;2022-10-19T12:06:01;3.47;;;2.23;;
17065;SDS011;23120;52.336;21.182;2022-10-19T12:08:39;2.77;;;2.00;;
17065;SDS011;23120;52.336;21.182;2022-10-19T12:11:20;1.80;;;1.50;;
17065;SDS011;23120;52.336;21.182;2022-10-19T12:13:55;5.03;;;1.17;;
17065;SDS011;23120;52.336;21.182;2022-10-19T12:16:27;1.50;;;1.00;;
17065;SDS011;23120;52.336;21.182;2022-10-19T12:19:01;2.03;;;1.10;;
17065;SDS011;23120;52.336;21.182;2022-10-19T12:21:32;1.83;;;0.90;;
17065;SDS011;23120;52.336;21.182;2022-10-19T12:24:02;2.30;;;0.97;;
17065;SDS011;23120;52.336;21.182;2022-10-19T12:26:36;2.27;;;1.03;;
17065;SDS011;23120;52.336;21.182;2022-10-19T12:29:04;1.20;;;0.80;;
17065;SDS011;23120;52.336;21.182;2022-10-19T12:31:35;3.30;;;0.80;;
17065;SDS011;23120;52.336;21.182;2022-10-19T12:34:04;3.13;;;1.00;;
17065;SDS011;23120;52.336;21.182;2022-10-19T12:36:36;1.77;;;0.80;;
17065;SDS011;23120;52.336;21.182;2022-10-19T12:39:11;1.93;;;1.00;;
17065;SDS011;23120;52.336;21.182;2022-10-19T12:41:44;2.57;;;1.10;;
17065;SDS011;23120;52.336;21.182;2022-10-19T12:44:22;1.60;;;1.10;;
17065;SDS011;23120;52.336;21.182;2022-10-19T12:47:05;1.60;;;0.93;;
17065;SDS011;23120;52.336;21.182;2022-10-19T12:49:42;1.83;;;0.77;;
17065;SDS011;23120;52.336;21.182;2022-10-19T12:52:10;1.90;;;0.83;;
17065;SDS011;23120;52.336;21.182;2022-10-19T12:54:39;3.40;;;1.37;;
17065;SDS011;23120;52.336;21.182;2022-10-19T12:57:22;3.17;;;1.53;;
17065;SDS011;23120;52.336;21.182;2022-10-19T13:00:00;4.30;;;2.60;;
17065;SDS011;23120;52.336;21.182;2022-10-19T13:02:31;5.20;;;2.60;;
17065;SDS011;23120;52.336;21.182;2022-10-19T13:05:00;2.80;;;1.50;;
17065;SDS011;23120;52.336;21.182;2022-10-19T13:07:27;1.67;;;1.13;;
17065;SDS011;23120;52.336;21.182;2022-10-19T13:10:00;3.27;;;1.07;;
17065;SDS011;23120;52.336;21.182;2022-10-19T13:12:41;1.30;;;0.87;;
17065;SDS011;23120;52.336;21.182;2022-10-19T13:18:15;1.47;;;1.10;;
17065;SDS011;23120;52.336;21.182;2022-10-19T13:21:58;1.40;;;0.83;;
17065;SDS011;23120;52.336;21.182;2022-10-19T13:27:51;2.73;;;1.40;;
17065;SDS011;23120;52.336;21.182;2022-10-19T13:33:43;9.57;;;6.70;;
17065;SDS011;23120;52.336;21.182;2022-10-19T13:36:14;17.63;;;12.00;;
17065;SDS011;23120;52.336;21.182;2022-10-19T13:38:43;15.07;;;10.87;;
17065;SDS011;23120;52.336;21.182;2022-10-19T13:41:17;10.60;;;7.67;;
17065;SDS011;23120;52.336;21.182;2022-10-19T13:43:59;9.77;;;7.10;;
17065;SDS011;23120;52.336;21.182;2022-10-19T13:46:33;6.30;;;5.27;;
17065;SDS011;23120;52.336;21.182;2022-10-19T13:49:16;3.70;;;3.37;;
17065;SDS011;23120;52.336;21.182;2022-10-19T13:51:57;3.37;;;2.87;;
17065;SDS011;23120;52.336;21.182;2022-10-19T13:54:42;2.87;;;2.50;;
17065;SDS011;23120;52.336;21.182;2022-10-19T13:57:22;2.30;;;1.40;;
17065;SDS011;23120;52.336;21.182;2022-10-19T14:00:03;2.60;;;1.73;;
17065;SDS011;23120;52.336;21.182;2022-10-19T14:02:44;3.30;;;1.60;;
17065;SDS011;23120;52.336;21.182;2022-10-19T14:11:31;2.37;;;1.40;;
17065;SDS011;23120;52.336;21.182;2022-10-19T14:14:14;1.40;;;1.10;;
17065;SDS011;23120;52.336;21.182;2022-10-19T14:16:46;2.03;;;1.50;;
17065;SDS011;23120;52.336;21.182;2022-10-19T14:19:18;3.47;;;1.23;;
17065;SDS011;23120;52.336;21.182;2022-10-19T14:21:51;3.60;;;1.80;;
17065;SDS011;23120;52.336;21.182;2022-10-19T14:24:19;3.00;;;1.83;;
17065;SDS011;23120;52.336;21.182;2022-10-19T14:26:52;3.70;;;1.80;;
17065;SDS011;23120;52.336;21.182;2022-10-19T14:29:19;2.23;;;1.50;;
17065;SDS011;23120;52.336;21.182;2022-10-19T14:31:46;3.27;;;1.60;;
17065;SDS011;23120;52.336;21.182;2022-10-19T14:34:13;3.20;;;2.37;;
17065;SDS011;23120;52.336;21.182;2022-10-19T14:36:42;3.87;;;2.80;;
17065;SDS011;23120;52.336;21.182;2022-10-19T14:39:20;4.40;;;2.80;;
17065;SDS011;23120;52.336;21.182;2022-10-19T14:41:53;2.47;;;2.20;;
17065;SDS011;23120;52.336;21.182;2022-10-19T14:44:27;3.20;;;2.27;;
17065;SDS011;23120;52.336;21.182;2022-10-19T14:47:00;2.30;;;1.60;;
17065;SDS011;23120;52.336;21.182;2022-10-19T14:49:27;3.57;;;1.40;;
17065;SDS011;23120;52.336;21.182;2022-10-19T14:51:54;4.33;;;1.30;;
17065;SDS011;23120;52.336;21.182;2022-10-19T14:54:26;1.30;;;1.20;;
17065;SDS011;23120;52.336;21.182;2022-10-19T14:56:58;3.77;;;1.50;;
17065;SDS011;23120;52.336;21.182;2022-10-19T14:59:29;4.87;;;1.70;;
17065;SDS011;23120;52.336;21.182;2022-10-19T15:02:00;8.20;;;2.67;;
17065;SDS011;23120;52.336;21.182;2022-10-19T15:04:30;7.33;;;2.57;;